createdAt,value
2019-04-07T00:01:09.107Z,100558.78
2019-04-07T00:03:38.980Z,100558.45
2019-04-07T00:06:08.204Z,100555.74
2019-04-07T00:08:37.683Z,100554.16
2019-04-07T00:11:07.017Z,100554.56
2019-04-07T00:13:36.488Z,100553.31
2019-04-07T00:16:05.685Z,100553.47
2019-04-07T00:18:34.910Z,100552.25
2019-04-07T00:21:04.091Z,100553.52
2019-04-07T00:23:33.681Z,100554.12
2019-04-07T00:26:02.886Z,100546.66
2019-04-07T00:28:32.511Z,100544.34
2019-04-07T00:31:02.393Z,100545.69
2019-04-07T00:33:32.219Z,100543.45
2019-04-07T00:36:01.438Z,100541.14
2019-04-07T00:38:30.642Z,100541.50
2019-04-07T00:41:00.168Z,100538.75
2019-04-07T00:43:29.642Z,100533.88
2019-04-07T00:45:58.878Z,100534.77
2019-04-07T00:48:28.638Z,100536.16
2019-04-07T00:50:57.948Z,100524.52
2019-04-07T00:53:27.275Z,100533.35
2019-04-07T00:55:56.480Z,100534.86
2019-04-07T00:58:25.744Z,100530.88
2019-04-07T01:00:55.184Z,100534.58
2019-04-07T01:03:24.893Z,100537.53
2019-04-07T01:05:54.478Z,100537.86
2019-04-07T01:08:23.660Z,100535.55
2019-04-07T01:10:53.312Z,100526.70
2019-04-07T01:13:23.099Z,100528.94
2019-04-07T01:15:52.318Z,100533.97
2019-04-07T01:18:21.601Z,100529.91
2019-04-07T01:20:50.849Z,100529.17
2019-04-07T01:23:20.223Z,100530.72
2019-04-07T01:25:50.160Z,100530.56
2019-04-07T01:28:19.822Z,100525.13
2019-04-07T01:30:49.150Z,100529.99
2019-04-07T01:33:18.460Z,100521.55
2019-04-07T01:35:49.266Z,100524.55
2019-04-07T01:38:18.544Z,100528.00
2019-04-07T01:40:58.340Z,100528.48
2019-04-07T01:43:31.792Z,100531.17
2019-04-07T01:46:17.633Z,100524.83
2019-04-07T01:49:00.190Z,100521.72
2019-04-07T01:51:48.835Z,100521.52
2019-04-07T01:54:22.970Z,100523.98
2019-04-07T01:56:56.916Z,100522.94
2019-04-07T01:59:44.349Z,100520.78
2019-04-07T02:02:21.278Z,100516.28
2019-04-07T02:04:58.155Z,100524.11
2019-04-07T02:07:43.872Z,100527.64
2019-04-07T02:10:32.643Z,100521.79
2019-04-07T02:13:15.330Z,100529.50
2019-04-07T02:15:52.692Z,100533.31
2019-04-07T02:18:26.329Z,100534.24
2019-04-07T02:21:15.225Z,100540.04
2019-04-07T02:23:46.184Z,100543.61
2019-04-07T02:26:23.564Z,100543.08
2019-04-07T02:29:03.866Z,100541.45
2019-04-07T02:31:38.221Z,100539.84
2019-04-07T02:34:11.953Z,100537.73
2019-04-07T02:36:43.214Z,100536.03
2019-04-07T02:39:14.161Z,100542.89
2019-04-07T02:41:45.587Z,100544.59
2019-04-07T02:44:20.380Z,100543.58
2019-04-07T02:46:51.676Z,100545.20
2019-04-07T02:49:22.617Z,100539.16
2019-04-07T02:51:54.217Z,100540.00
2019-04-07T02:54:43.304Z,100534.28
2019-04-07T02:57:18.904Z,100533.92
2019-04-07T02:59:55.878Z,100533.84
2019-04-07T03:02:41.620Z,100531.69
2019-04-07T03:05:29.534Z,100528.56
2019-04-07T03:08:01.542Z,100529.63
2019-04-07T03:10:47.662Z,100521.23
2019-04-07T03:13:24.453Z,100525.41
2019-04-07T03:15:55.376Z,100525.66
2019-04-07T03:18:39.033Z,100516.23
2019-04-07T03:21:13.191Z,100515.56
2019-04-07T03:23:44.181Z,100516.16
2019-04-07T03:26:18.403Z,100513.69
2019-04-07T03:28:58.198Z,100515.27
2019-04-07T03:31:46.824Z,100515.52
2019-04-07T03:34:26.071Z,100514.13
2019-04-07T03:37:24.326Z,100524.27
2019-04-07T03:39:46.119Z,100527.80
2019-04-07T03:42:20.017Z,100534.00
2019-04-07T03:44:53.698Z,100534.94
2019-04-07T03:47:25.792Z,100532.42
2019-04-07T03:49:57.180Z,100534.40
2019-04-07T03:52:34.078Z,100534.12
2019-04-07T03:55:04.945Z,100533.31
2019-04-07T03:57:41.575Z,100534.64
2019-04-07T04:00:55.103Z,100536.18
2019-04-07T04:03:29.941Z,100541.84
2019-04-07T04:06:00.996Z,100541.97
2019-04-07T04:08:35.023Z,100537.77
2019-04-07T04:11:11.689Z,100531.87
2019-04-07T04:13:58.235Z,100528.64
2019-04-07T04:16:28.537Z,100523.52
2019-04-07T04:18:58.749Z,100518.73
2019-04-07T04:21:28.851Z,100521.08
2019-04-07T04:23:59.036Z,100524.44
2019-04-07T04:26:29.104Z,100526.66
2019-04-07T04:28:58.414Z,100529.21
2019-04-07T04:31:27.588Z,100526.36
2019-04-07T04:33:57.926Z,100527.59
2019-04-07T04:36:27.327Z,100532.09
2019-04-07T04:38:56.626Z,100535.39
2019-04-07T04:41:25.797Z,100533.92
2019-04-07T04:43:54.985Z,100537.77
2019-04-07T04:46:24.295Z,100537.48
2019-04-07T04:48:55.250Z,100537.61
2019-04-07T04:51:24.431Z,100539.03
2019-04-07T04:53:53.800Z,100541.14
2019-04-07T04:56:23.030Z,100538.17
2019-04-07T04:58:53.170Z,100542.17
2019-04-07T05:01:23.031Z,100542.73
2019-04-07T05:03:52.547Z,100549.06
2019-04-07T05:06:21.849Z,100545.60
2019-04-07T05:08:51.241Z,100550.58
2019-04-07T05:11:21.167Z,100552.63
2019-04-07T05:13:50.467Z,100554.95
2019-04-07T05:16:19.810Z,100556.39
2019-04-07T05:18:49.174Z,100563.98
2019-04-07T05:21:18.563Z,100561.05
2019-04-07T05:23:48.058Z,100566.11
2019-04-07T05:26:18.025Z,100563.80
2019-04-07T05:28:47.227Z,100561.92
2019-04-07T05:31:16.439Z,100563.84
2019-04-07T05:33:46.439Z,100564.42
2019-04-07T05:36:15.868Z,100570.13
2019-04-07T05:38:45.511Z,100570.14
2019-04-07T05:41:14.964Z,100574.27
2019-04-07T05:43:44.255Z,100579.96
2019-04-07T05:46:13.858Z,100580.94
2019-04-07T05:48:43.625Z,100582.85
2019-04-07T05:51:13.390Z,100580.76
2019-04-07T05:53:46.333Z,100576.31
2019-04-07T05:56:13.643Z,100581.92
2019-04-07T05:58:43.807Z,100584.48
2019-04-07T06:01:13.053Z,100586.48
2019-04-07T06:03:43.661Z,100587.59
2019-04-07T06:06:13.471Z,100590.19
2019-04-07T06:08:42.843Z,100593.84
2019-04-07T06:11:12.582Z,100594.73
2019-04-07T06:13:43.783Z,100597.47
2019-04-07T06:16:12.970Z,100593.13
2019-04-07T06:18:42.251Z,100591.71
2019-04-07T06:21:14.144Z,100591.52
2019-04-07T06:23:43.205Z,100592.91
2019-04-07T06:26:13.075Z,100591.34
2019-04-07T06:28:42.354Z,100592.03
2019-04-07T06:31:11.776Z,100593.09
2019-04-07T06:33:41.490Z,100588.88
2019-04-07T06:36:11.515Z,100592.33
2019-04-07T06:38:43.609Z,100596.84
2019-04-07T06:41:11.686Z,100591.61
2019-04-07T06:43:41.220Z,100595.53
2019-04-07T06:46:17.657Z,100591.73
2019-04-07T06:48:55.106Z,100594.31
2019-04-07T06:51:29.204Z,100592.13
2019-04-07T06:54:01.189Z,100601.28
2019-04-07T06:56:43.795Z,100606.64
2019-04-07T06:59:20.524Z,100614.38
2019-04-07T07:01:51.401Z,100609.78
2019-04-07T07:04:25.283Z,100618.86
2019-04-07T07:07:08.877Z,100615.21
2019-04-07T07:09:42.865Z,100617.77
2019-04-07T07:12:22.463Z,100613.37
2019-04-07T07:14:51.766Z,100616.29
2019-04-07T07:17:32.235Z,100614.55
2019-04-07T07:20:09.215Z,100616.89
2019-04-07T07:22:55.064Z,100620.72
2019-04-07T07:25:24.285Z,100626.05
2019-04-07T07:27:53.527Z,100625.20
2019-04-07T07:30:22.745Z,100627.33
2019-04-07T07:32:52.000Z,100620.67
2019-04-07T07:35:21.170Z,100625.35
2019-04-07T07:37:50.990Z,100627.14
2019-04-07T07:40:21.067Z,100625.91
2019-04-07T07:42:51.133Z,100630.94
2019-04-07T07:45:20.465Z,100625.86
2019-04-07T07:47:53.183Z,100630.02
2019-04-07T07:50:20.654Z,100627.64
2019-04-07T07:52:53.379Z,100629.15
2019-04-07T07:55:20.982Z,100633.39
2019-04-07T07:57:54.325Z,100636.56
2019-04-07T08:00:21.202Z,100638.97
2019-04-07T08:02:52.507Z,100636.59
2019-04-07T08:05:21.526Z,100635.66
2019-04-07T08:07:51.209Z,100638.06
2019-04-07T08:10:21.296Z,100637.09
2019-04-07T08:12:51.923Z,100640.48
2019-04-07T08:15:25.503Z,100632.97
2019-04-07T08:17:52.138Z,100636.36
2019-04-07T08:20:22.034Z,100637.41
2019-04-07T08:22:51.546Z,100642.67
2019-04-07T08:25:24.437Z,100641.88
2019-04-07T08:27:51.856Z,100644.20
2019-04-07T08:30:21.658Z,100647.56
2019-04-07T08:32:50.844Z,100646.39
2019-04-07T08:35:20.254Z,100646.34
2019-04-07T08:37:50.067Z,100645.89
2019-04-07T08:40:19.925Z,100653.64
2019-04-07T08:42:50.187Z,100647.78
2019-04-07T08:45:21.125Z,100647.73
2019-04-07T08:47:51.716Z,100645.05
2019-04-07T08:50:22.654Z,100648.26
2019-04-07T08:52:52.232Z,100646.21
2019-04-07T08:55:21.854Z,100644.33
2019-04-07T08:57:51.765Z,100645.97
2019-04-07T09:00:22.794Z,100650.16
2019-04-07T09:03:01.643Z,100651.09
2019-04-07T09:05:27.706Z,100649.17
2019-04-07T09:07:55.146Z,100655.94
2019-04-07T09:10:25.973Z,100651.22
2019-04-07T09:12:56.814Z,100646.77
2019-04-07T09:15:28.245Z,100648.02
2019-04-07T09:17:59.368Z,100646.53
2019-04-07T09:20:36.157Z,100649.23
2019-04-07T09:23:13.469Z,100645.25
2019-04-07T09:25:47.305Z,100649.23
2019-04-07T09:28:31.499Z,100652.05
2019-04-07T09:31:03.593Z,100649.50
2019-04-07T09:33:46.249Z,100643.38
2019-04-07T09:36:31.592Z,100650.03
2019-04-07T09:39:07.864Z,100645.02
2019-04-07T09:41:45.078Z,100645.48
2019-04-07T09:44:22.104Z,100649.00
2019-04-07T09:46:55.767Z,100651.38
2019-04-07T09:49:46.758Z,100650.73
2019-04-07T09:52:20.873Z,100651.79
2019-04-07T09:55:01.055Z,100646.55
2019-04-07T09:57:50.701Z,100652.02
2019-04-07T10:00:39.895Z,100657.20
2019-04-07T10:03:27.004Z,100647.89
2019-04-07T10:06:09.834Z,100644.70
2019-04-07T10:08:43.171Z,100647.09
2019-04-07T10:11:19.836Z,100647.83
2019-04-07T10:13:53.617Z,100642.87
2019-04-07T10:16:27.232Z,100641.09
2019-04-07T10:19:06.673Z,100644.59
2019-04-07T10:21:53.612Z,100644.24
2019-04-07T10:24:27.241Z,100639.14
2019-04-07T10:27:10.789Z,100642.53
2019-04-07T10:29:44.954Z,100632.59
2019-04-07T10:32:18.933Z,100636.72
2019-04-07T10:35:05.926Z,100633.36
2019-04-07T10:37:45.710Z,100633.70
2019-04-07T10:40:24.427Z,100632.73
2019-04-07T10:42:58.435Z,100631.40
2019-04-07T10:45:29.645Z,100635.93
2019-04-07T10:48:06.909Z,100637.07
2019-04-07T10:50:53.527Z,100630.80
2019-04-07T10:53:31.304Z,100629.02
2019-04-07T10:56:08.886Z,100632.23
2019-04-07T10:58:42.513Z,100630.30
2019-04-07T11:01:28.989Z,100627.88
2019-04-07T11:04:02.694Z,100625.98
2019-04-07T11:06:50.166Z,100632.19
2019-04-07T11:09:23.751Z,100635.20
2019-04-07T11:11:54.816Z,100637.83
2019-04-07T11:14:42.001Z,100638.48
2019-04-07T11:17:12.846Z,100634.12
2019-04-07T11:19:44.479Z,100624.80
2019-04-07T11:22:31.771Z,100629.63
2019-04-07T11:25:18.899Z,100630.97
2019-04-07T11:28:05.962Z,100631.03
2019-04-07T11:30:37.499Z,100629.38
2019-04-07T11:33:11.749Z,100633.17
2019-04-07T11:35:45.587Z,100634.55
2019-04-07T11:38:34.312Z,100629.63
2019-04-07T11:41:24.132Z,100630.31
2019-04-07T11:43:56.454Z,100632.82
2019-04-07T11:46:35.904Z,100639.11
2019-04-07T11:49:19.506Z,100634.25
2019-04-07T11:52:02.223Z,100644.86
2019-04-07T11:54:38.909Z,100631.92
2019-04-07T11:57:09.878Z,100629.34
2019-04-07T11:59:46.551Z,100626.28
2019-04-07T12:02:19.837Z,100635.28
2019-04-07T12:04:55.888Z,100642.07
2019-04-07T12:07:30.485Z,100635.34
2019-04-07T12:10:17.891Z,100628.44
2019-04-07T12:13:07.183Z,100624.22
2019-04-07T12:15:56.080Z,100630.56
2019-04-07T12:18:42.535Z,100617.36
2019-04-07T12:21:29.811Z,100619.72
2019-04-07T12:24:01.544Z,100614.52
2019-04-07T12:26:47.354Z,100620.16
2019-04-07T12:29:18.861Z,100617.84
2019-04-07T12:31:59.660Z,100620.98
2019-04-07T12:34:30.750Z,100619.44
2019-04-07T12:37:19.201Z,100617.23
2019-04-07T12:39:53.406Z,100619.83
2019-04-07T12:42:24.307Z,100620.64
2019-04-07T12:44:55.564Z,100625.88
2019-04-07T12:47:43.044Z,100616.05
2019-04-07T12:50:30.523Z,100613.29
2019-04-07T12:53:02.779Z,100606.87
2019-04-07T12:55:40.508Z,100611.16
2019-04-07T12:58:19.931Z,100611.53
2019-04-07T13:01:09.316Z,100612.82
2019-04-07T13:03:41.154Z,100615.67
2019-04-07T13:06:20.576Z,100604.28
2019-04-07T13:09:00.740Z,100603.91
2019-04-07T13:11:49.730Z,100605.13
2019-04-07T13:14:29.051Z,100613.93
2019-04-07T13:17:01.661Z,100606.31
2019-04-07T13:19:35.329Z,100597.40
2019-04-07T13:22:06.745Z,100606.12
2019-04-07T13:24:56.979Z,100610.29
2019-04-07T13:27:26.502Z,100604.50
2019-04-07T13:30:09.547Z,100608.48
2019-04-07T13:32:59.239Z,100594.92
2019-04-07T13:35:44.232Z,100591.86
2019-04-07T13:38:18.077Z,100591.44
2019-04-07T13:40:48.953Z,100604.44
2019-04-07T13:43:31.334Z,100594.34
2019-04-07T13:46:01.316Z,100603.27
2019-04-07T13:48:32.336Z,100601.62
2019-04-07T13:51:19.537Z,100594.44
2019-04-07T13:53:59.553Z,100597.61
2019-04-07T13:56:49.879Z,100590.20
2019-04-07T13:59:19.332Z,100593.20
2019-04-07T14:01:59.165Z,100593.06
2019-04-07T14:04:36.102Z,100584.86
2019-04-07T14:07:10.049Z,100587.12
2019-04-07T14:09:41.672Z,100584.34
2019-04-07T14:12:24.891Z,100583.59
2019-04-07T14:15:05.215Z,100582.50
2019-04-07T14:17:48.117Z,100580.36
2019-04-07T14:20:19.335Z,100587.11
2019-04-07T14:22:55.670Z,100582.72
2019-04-07T14:25:47.061Z,100580.92
2019-04-07T14:28:17.744Z,100578.42
2019-04-07T14:31:05.456Z,100579.84
2019-04-07T14:33:51.413Z,100578.92
2019-04-07T14:36:31.513Z,100570.31
2019-04-07T14:39:02.096Z,100568.48
2019-04-07T14:41:38.770Z,100573.20
2019-04-07T14:44:15.188Z,100572.23
2019-04-07T14:46:49.030Z,100566.46
2019-04-07T14:49:22.796Z,100575.17
2019-04-07T14:51:59.862Z,100572.20
2019-04-07T14:54:46.449Z,100569.34
2019-04-07T14:57:29.431Z,100575.42
2019-04-07T15:00:03.470Z,100579.89
2019-04-07T15:02:33.452Z,100580.34
2019-04-07T15:05:06.073Z,100575.03
2019-04-07T15:07:48.795Z,100582.52
2019-04-07T15:10:26.429Z,100575.98
2019-04-07T15:13:03.243Z,100575.66
2019-04-07T15:15:32.549Z,100580.45
2019-04-07T15:18:01.940Z,100577.75
2019-04-07T15:20:31.231Z,100582.79
2019-04-07T15:23:01.606Z,100584.66
2019-04-07T15:25:31.435Z,100582.77
2019-04-07T15:28:01.299Z,100578.33
2019-04-07T15:30:31.115Z,100575.66
2019-04-07T15:33:02.393Z,100576.65
2019-04-07T15:35:31.752Z,100577.45
2019-04-07T15:38:01.266Z,100579.25
2019-04-07T15:40:34.042Z,100580.81
2019-04-07T15:43:04.378Z,100580.79
2019-04-07T15:45:33.353Z,100582.38
2019-04-07T15:48:02.929Z,100572.78
2019-04-07T15:50:35.469Z,100577.25
2019-04-07T15:53:09.324Z,100582.20
2019-04-07T15:55:47.838Z,100584.64
2019-04-07T15:58:11.352Z,100589.06
2019-04-07T16:00:52.660Z,100591.02
2019-04-07T16:03:22.351Z,100592.48
2019-04-07T16:05:56.229Z,100590.09
2019-04-07T16:08:28.790Z,100594.02
2019-04-07T16:10:56.562Z,100597.88
2019-04-07T16:13:26.654Z,100596.89
2019-04-07T16:15:58.412Z,100598.70
2019-04-07T16:18:28.447Z,100601.17
2019-04-07T16:20:58.084Z,100605.28
2019-04-07T16:23:36.440Z,100601.05
2019-04-07T16:26:06.559Z,100605.38
2019-04-07T16:28:38.899Z,100605.73
2019-04-07T16:31:08.543Z,100604.16
2019-04-07T16:33:43.978Z,100610.55
2019-04-07T16:36:13.237Z,100611.92
2019-04-07T16:38:43.188Z,100615.94
2019-04-07T16:41:14.134Z,100614.45
2019-04-07T16:43:43.515Z,100617.50
2019-04-07T16:46:16.986Z,100614.21
2019-04-07T16:48:43.760Z,100618.90
2019-04-07T16:51:13.464Z,100620.45
2019-04-07T16:53:43.380Z,100627.92
2019-04-07T16:56:13.621Z,100624.39
2019-04-07T16:58:43.670Z,100628.09
2019-04-07T17:01:18.508Z,100629.16
2019-04-07T17:03:48.662Z,100631.53
2019-04-07T17:06:20.773Z,100630.05
2019-04-07T17:08:51.511Z,100630.72
2019-04-07T17:11:21.003Z,100626.48
2019-04-07T17:13:50.302Z,100632.44
2019-04-07T17:16:22.908Z,100630.94
2019-04-07T17:18:51.084Z,100634.76
2019-04-07T17:21:20.503Z,100637.17
2019-04-07T17:23:53.317Z,100639.91
2019-04-07T17:26:23.552Z,100639.34
2019-04-07T17:28:52.655Z,100640.16
2019-04-07T17:31:22.144Z,100643.03
2019-04-07T17:33:52.115Z,100644.37
2019-04-07T17:36:22.795Z,100647.55
2019-04-07T17:38:54.033Z,100651.74
2019-04-07T17:41:23.497Z,100655.21
2019-04-07T17:44:00.982Z,100657.36
2019-04-07T17:46:47.708Z,100657.33
2019-04-07T17:49:23.352Z,100661.38
2019-04-07T17:51:57.442Z,100670.56
2019-04-07T17:54:31.162Z,100674.99
2019-04-07T17:57:08.762Z,100677.14
2019-04-07T17:59:49.317Z,100678.44
2019-04-07T18:02:19.706Z,100683.92
2019-04-07T18:04:53.426Z,100682.50
2019-04-07T18:07:30.032Z,100693.36
2019-04-07T18:10:04.759Z,100695.86
2019-04-07T18:12:45.390Z,100700.48
2019-04-07T18:15:14.829Z,100706.87
2019-04-07T18:17:56.272Z,100707.02
2019-04-07T18:20:32.739Z,100709.80
2019-04-07T18:23:32.638Z,100714.47
2019-04-07T18:26:21.778Z,100714.60
2019-04-07T18:29:01.842Z,100716.42
2019-04-07T18:31:36.216Z,100720.50
2019-04-07T18:34:25.156Z,100729.38
2019-04-07T18:36:54.267Z,100730.88
2019-04-07T18:39:27.832Z,100734.94
2019-04-07T18:42:03.499Z,100732.13
2019-04-07T18:44:38.634Z,100735.56
2019-04-07T18:47:06.887Z,100737.14
2019-04-07T18:49:40.923Z,100739.45
2019-04-07T18:52:16.067Z,100742.27
2019-04-07T18:54:47.611Z,100750.66
2019-04-07T18:57:34.832Z,100753.34
2019-04-07T19:00:23.410Z,100758.27
2019-04-07T19:03:03.265Z,100762.87
2019-04-07T19:05:52.069Z,100765.57
2019-04-07T19:08:28.817Z,100766.53
2019-04-07T19:11:10.665Z,100770.13
2019-04-07T19:13:32.526Z,100773.48
2019-04-07T19:16:19.548Z,100776.94
2019-04-07T19:19:04.877Z,100782.84
2019-04-07T19:21:47.010Z,100785.11
2019-04-07T19:24:23.899Z,100786.55
2019-04-07T19:26:56.175Z,100787.92
2019-04-07T19:29:46.151Z,100791.89
2019-04-07T19:32:17.983Z,100792.97
2019-04-07T19:34:52.998Z,100788.97
2019-04-07T19:37:32.714Z,100793.45
2019-04-07T19:40:19.776Z,100793.27
2019-04-07T19:42:59.681Z,100794.89
2019-04-07T19:45:33.304Z,100796.55
2019-04-07T19:48:08.378Z,100800.13
2019-04-07T19:50:42.766Z,100800.97
2019-04-07T19:53:32.653Z,100803.13
2019-04-07T19:56:04.478Z,100798.98
2019-04-07T19:58:38.631Z,100798.36
2019-04-07T20:01:17.258Z,100797.08
2019-04-07T20:03:49.546Z,100795.26
2019-04-07T20:06:36.653Z,100797.70
2019-04-07T20:09:15.465Z,100799.09
2019-04-07T20:12:02.894Z,100798.45
2019-04-07T20:14:47.372Z,100800.01
2019-04-07T20:17:18.930Z,100796.16
2019-04-07T20:19:59.850Z,100801.86
2019-04-07T20:22:30.777Z,100802.92
2019-04-07T20:25:20.418Z,100809.50
2019-04-07T20:28:09.777Z,100806.23
2019-04-07T20:30:56.684Z,100806.09
2019-04-07T20:33:32.951Z,100807.22
2019-04-07T20:36:23.750Z,100811.70
2019-04-07T20:39:01.920Z,100815.73
2019-04-07T20:41:38.640Z,100819.20
2019-04-07T20:44:25.842Z,100815.69
2019-04-07T20:47:12.202Z,100815.96
2019-04-07T20:50:00.087Z,100821.92
2019-04-07T20:52:31.980Z,100817.81
2019-04-07T20:55:15.581Z,100817.45
2019-04-07T20:57:51.351Z,100816.30
2019-04-07T21:00:38.270Z,100820.91
2019-04-07T21:03:19.614Z,100822.21
2019-04-07T21:05:42.676Z,100816.48
2019-04-07T21:08:16.571Z,100818.38
2019-04-07T21:11:07.501Z,100822.88
2019-04-07T21:13:39.568Z,100818.94
2019-04-07T21:16:16.636Z,100823.73
2019-04-07T21:18:47.596Z,100821.74
2019-04-07T21:21:37.472Z,100827.88
2019-04-07T21:24:23.807Z,100825.72
2019-04-07T21:27:03.878Z,100830.84
2019-04-07T21:29:34.716Z,100829.73
2019-04-07T21:32:09.861Z,100827.23
2019-04-07T21:34:40.836Z,100828.55
2019-04-07T21:37:20.316Z,100831.72
2019-04-07T21:39:53.797Z,100831.10
2019-04-07T21:42:30.774Z,100831.33
2019-04-07T21:45:29.152Z,100827.47
2019-04-07T21:48:09.580Z,100836.77
2019-04-07T21:50:56.357Z,100837.51
2019-04-07T21:53:45.467Z,100831.34
2019-04-07T21:56:16.406Z,100831.76
2019-04-07T21:58:52.003Z,100833.55
2019-04-07T22:01:39.016Z,100838.89
2019-04-07T22:04:10.702Z,100834.33
2019-04-07T22:06:47.671Z,100831.55
2019-04-07T22:09:21.269Z,100834.48
2019-04-07T22:11:51.440Z,100836.54
2019-04-07T22:14:20.919Z,100837.91
2019-04-07T22:16:51.178Z,100837.31
2019-04-07T22:19:20.502Z,100840.66
2019-04-07T22:21:53.228Z,100843.66
2019-04-07T22:24:20.787Z,100842.62
2019-04-07T22:26:50.548Z,100845.72
2019-04-07T22:29:20.691Z,100840.75
2019-04-07T22:31:51.612Z,100846.27
2019-04-07T22:34:20.914Z,100843.98
2019-04-07T22:36:50.170Z,100844.71
2019-04-07T22:39:19.410Z,100848.08
2019-04-07T22:41:48.814Z,100847.48
2019-04-07T22:44:20.354Z,100850.02
2019-04-07T22:46:51.268Z,100853.60
2019-04-07T22:49:20.063Z,100852.61
2019-04-07T22:51:50.548Z,100856.52
2019-04-07T22:54:20.027Z,100855.69
2019-04-07T22:56:49.291Z,100854.42
2019-04-07T22:59:18.522Z,100852.03
2019-04-07T23:01:47.738Z,100851.54
2019-04-07T23:04:16.957Z,100852.06
2019-04-07T23:06:46.184Z,100846.94
2019-04-07T23:09:15.571Z,100848.95
2019-04-07T23:11:44.839Z,100845.53
2019-04-07T23:14:14.043Z,100852.34
2019-04-07T23:16:44.174Z,100850.47
2019-04-07T23:19:14.331Z,100852.42
2019-04-07T23:21:43.586Z,100850.67
2019-04-07T23:24:12.975Z,100853.87
2019-04-07T23:26:42.576Z,100852.17
2019-04-07T23:29:12.153Z,100857.02
2019-04-07T23:31:41.555Z,100859.05
2019-04-07T23:34:10.793Z,100862.72
2019-04-07T23:36:40.011Z,100857.73
2019-04-07T23:39:09.934Z,100862.86
2019-04-07T23:41:39.458Z,100863.61
2019-04-07T23:44:09.419Z,100862.86
2019-04-07T23:46:39.335Z,100858.28
2019-04-07T23:49:08.681Z,100860.20
2019-04-07T23:51:37.922Z,100859.08
2019-04-07T23:54:14.333Z,100862.05
2019-04-07T23:56:43.876Z,100864.48
2019-04-07T23:59:13.170Z,100861.41
